Latest Weather Observations for Edinburgh

IDS60801

Issued at 4:05 pm CST Wednesday 3 September 2014 (issued every 30 minutes, with the page automatically refreshed every 10 minutes)

About weather observations | Map of weather stations | Latest weather observations for SA | Other Formats
Station Details ID: 023083 Name: EDINBURGH RAAF Lat: -34.71 Lon: 138.62 Height: 16.54 m
Data from the previous 72 hours. | See also: Recent months at Edinburgh
Date/Time
CST
Temp
°C
App
Temp
°C
Dew
Point
Rel
Hum
%
Delta-T
°C
Wind Press
QNH
hPa
Press
MSL
hPa
Rain
since 9 am
mm
Dir
 
Spd
km/h
Gust
km/h
Spd
kts
Gust
kts
03/04:00pm 14.1 10.0 6.2 59 3.8 NNW 17 24 9 13 1020.2 1020.2 0.0
03/03:30pm 15.1 11.6 7.2 59 3.9 N 15 22 8 12 1020.3 1020.3 0.0
03/03:00pm 14.2 10.6 6.8 61 3.6 N 15 22 8 12 1020.6 1020.6 0.0
03/02:30pm 14.3 11.0 6.2 58 3.9 N 13 17 7 9 1020.8 1020.8 0.0
03/02:00pm 13.8 10.4 5.7 58 3.8 N 13 19 7 10 1021.1 1021.1 0.0
03/01:30pm 13.5 9.7 5.9 60 3.6 N 15 20 8 11 1021.6 1021.6 0.0
03/01:00pm 13.4 9.2 5.8 60 3.6 N 17 22 9 12 1021.8 1021.8 0.0
03/12:30pm 13.6 9.7 6.9 64 3.2 NNE 17 20 9 11 1022.5 1022.5 0.0
03/12:00pm 13.2 8.4 5.4 59 3.6 NNE 20 24 11 13 1023.0 1023.0 0.0
03/11:30am 13.4 8.4 6.3 62 3.4 NNE 22 28 12 15 1023.4 1023.4 0.0
03/11:00am 13.1 8.0 5.8 61 3.4 NE 22 28 12 15 1023.8 1023.8 0.0
03/10:30am 13.0 8.3 6.1 63 3.3 NE 20 26 11 14 1024.3 1024.3 0.0
03/10:00am 11.7 7.2 6.2 69 2.6 NE 19 26 10 14 1024.6 1024.6 0.0
03/09:30am 10.9 7.9 7.6 80 1.6 NNE 13 17 7 9 1024.9 1024.9 0.0
03/09:00am 9.2 5.9 6.6 84 1.2 NE 13 17 7 9 1025.1 1025.1 0.0
03/08:30am 8.4 5.9 6.5 88 0.9 N 9 11 5 6 1025.7 1025.7 0.0
03/08:00am 6.6 4.2 5.4 92 0.5 N 7 9 4 5 1026.1 1026.1 0.0
03/07:30am 4.7 2.2 3.7 93 0.4 NNW 6 7 3 4 1025.9 1025.9 0.0
03/07:00am 4.2 1.0 3.2 93 0.4 NNW 9 13 5 7 1025.3 1025.3 0.0
03/06:30am 3.6 0.3 2.6 93 0.4 NNW 9 11 5 6 1025.1 1025.1 0.0
03/06:00am 3.6 0.7 2.4 92 0.5 NNE 7 9 4 5 1024.8 1024.8 0.0
03/05:30am 3.6 0.7 2.4 92 0.5 N 7 9 4 5 1025.0 1025.0 0.0
03/05:00am 3.7 0.4 2.5 92 0.5 NE 9 11 5 6 1024.6 1024.6 0.0
03/04:30am 3.5 0.2 2.2 91 0.5 NE 9 11 5 6 1024.5 1024.5 0.0
03/04:00am 4.1 0.9 2.9 92 0.5 NE 9 11 5 6 1024.6 1024.6 0.0
03/03:30am 3.7 0.4 2.4 91 0.5 NE 9 11 5 6 1025.0 1025.0 0.0
03/03:00am 4.6 1.8 3.3 91 0.5 ENE 7 9 4 5 1025.3 1025.3 0.0
03/02:30am 4.4 2.2 3.1 91 0.5 NNE 4 6 2 3 1025.8 1025.8 0.0
03/02:00am 4.3 1.6 2.8 90 0.6 ENE 6 7 3 4 1026.2 1026.2 0.0
03/01:30am 4.9 1.8 3.4 90 0.6 NE 9 11 5 6 1026.2 1026.2 0.0
03/01:00am 5.2 3.1 3.7 90 0.6 NNE 4 7 2 4 1026.3 1026.3 0.0
03/12:30am 5.3 2.8 3.6 89 0.7 NE 6 7 3 4 1026.5 1026.5 0.0
03/12:00am 5.4 4.0 3.3 86 0.9 NE 0 0 0 0 1026.7 1026.7 0.0
 
Date/Time
CST
Temp
°C
App
Temp
°C
Dew
Point
Rel
Hum
%
Delta-T
°C
Wind Press
QNH
hPa
Press
MSL
hPa
Rain
since 9 am
mm
Dir
 
Spd
km/h
Gust
km/h
Spd
kts
Gust
kts
02/11:30pm 6.1 4.0 3.9 86 0.9 NE 4 6 2 3 1026.8 1026.8 0.0
02/11:00pm 5.6 4.0 2.6 81 1.2 CALM 0 0 0 0 1026.9 1026.9 0.0
02/10:30pm 8.3 5.9 5.2 81 1.4 S 7 9 4 5 1027.1 1027.1 0.0
02/10:00pm 9.3 7.0 5.5 77 1.7 SSE 7 9 4 5 1027.0 1027.0 0.0
02/09:30pm 9.3 6.6 5.5 77 1.7 SSE 9 11 5 6 1027.0 1027.0 0.0
02/09:00pm 8.3 5.8 4.7 78 1.6 S 7 9 4 5 1027.1 1027.1 0.0
02/08:30pm 10.2 7.8 5.4 72 2.2 SSE 7 11 4 6 1026.9 1026.9 0.0
02/08:00pm 10.2 7.9 5.6 73 2.1 SE 7 11 4 6 1026.7 1026.7 0.0
02/07:30pm 10.6 8.4 6.4 75 2.0 SSE 7 9 4 5 1026.6 1026.6 0.0
02/07:00pm 11.0 8.5 6.4 73 2.2 S 9 11 5 6 1026.1 1026.1 0.0
02/06:30pm 11.4 8.1 6.3 71 2.4 SSW 13 19 7 10 1025.8 1025.8 0.0
02/06:00pm 12.2 7.5 6.0 66 2.9 SSW 20 26 11 14 1025.5 1025.5 0.0
02/05:30pm 13.0 7.9 5.9 62 3.3 SW 22 28 12 15 1025.2 1025.2 0.0
02/05:00pm 13.7 8.9 5.6 58 3.8 SW 20 28 11 15 1025.0 1025.0 0.0
02/04:30pm 14.3 8.3 5.4 55 4.2 SSW 26 32 14 17 1024.9 1024.9 0.0
02/04:00pm 15.0 9.5 6.0 55 4.3 SSW 24 33 13 18 1024.8 1024.8 0.0
02/03:30pm 14.7 8.9 6.3 57 4.0 SSW 26 35 14 19 1024.6 1024.6 0.0
02/03:00pm 14.1 9.0 6.2 59 3.8 S 22 35 12 19 1024.6 1024.6 0.0
02/02:30pm 14.8 8.7 6.6 58 4.0 SW 28 37 15 20 1024.5 1024.5 0.0
02/02:00pm 15.2 9.8 8.2 63 3.5 SW 26 33 14 18 1024.6 1024.6 0.0
02/01:30pm 14.0 8.3 6.6 61 3.6 SW 26 33 14 18 1024.8 1024.8 0.0
02/01:00pm 14.4 9.5 6.7 60 3.7 SSW 22 26 12 14 1024.7 1024.7 0.0
02/12:30pm 13.3 7.5 8.0 70 2.6 SW 28 37 15 20 1024.7 1024.7 0.0
02/12:00pm 14.0 9.8 7.5 65 3.2 WSW 19 24 10 13 1024.9 1024.9 0.0
02/11:30am 14.5 11.2 4.8 52 4.5 S 11 17 6 9 1025.0 1025.0 0.0
02/11:00am 13.1 9.2 5.3 59 3.6 SSE 15 22 8 12 1025.4 1025.4 0.0
02/10:30am 13.2 8.5 5.1 58 3.7 S 19 24 10 13 1025.3 1025.3 0.0
02/10:00am 13.2 9.2 6.8 65 3.1 SSW 17 24 9 13 1025.4 1025.4 0.0
02/09:30am 12.5 8.2 7.0 69 2.6 SSW 19 24 10 13 1025.2 1025.2 0.0
02/09:00am 11.8 8.7 7.1 73 2.2 SSW 13 22 7 12 1025.3 1025.3 1.6
02/08:30am 10.2 8.1 6.5 78 1.7 SSW 7 11 4 6 1025.4 1025.4 1.6
02/08:00am 8.8 6.8 6.1 83 1.2 SSW 6 7 3 4 1025.0 1025.0 1.6
02/07:30am 7.8 6.9 6.1 89 0.8 CALM 0 0 0 0 1024.4 1024.4 1.6
02/07:00am 6.6 4.3 4.8 88 0.8 S 6 7 3 4 1024.1 1024.1 1.6
02/06:30am 6.6 4.3 4.6 87 0.9 S 6 7 3 4 1023.5 1023.5 1.6
02/06:00am 6.4 4.0 4.4 87 0.9 SW 6 7 3 4 1023.2 1023.2 1.6
02/05:30am 7.3 4.9 5.3 87 0.9 SSE 7 9 4 5 1022.6 1022.6 1.6
02/05:00am 7.4 4.9 5.0 85 1.1 SE 7 9 4 5 1022.1 1022.1 1.6
02/04:30am 8.2 5.4 5.3 82 1.3 S 9 13 5 7 1021.7 1021.7 1.6
02/04:00am 8.8 6.5 5.9 82 1.3 S 7 9 4 5 1021.4 1021.4 1.6
02/03:30am 8.4 5.6 5.2 80 1.4 S 9 15 5 8 1021.0 1021.0 1.4
02/03:00am 9.4 5.4 5.0 74 2.0 SSW 15 22 8 12 1020.7 1020.7 1.2
02/02:30am 9.4 5.7 4.6 72 2.1 S 13 19 7 10 1020.7 1020.7 1.2
02/02:00am 10.1 4.4 4.7 69 2.4 SW 24 35 13 19 1020.5 1020.5 1.2
02/01:30am 9.9 3.8 4.9 71 2.2 SW 26 35 14 19 1020.5 1020.5 1.2
02/01:00am 9.8 4.6 5.4 74 2.0 SW 22 30 12 16 1020.3 1020.3 1.2
02/12:30am 9.9 4.4 5.7 75 1.9 SW 24 32 13 17 1020.2 1020.2 1.2
02/12:00am 9.9 4.0 5.7 75 1.9 SW 26 35 14 19 1020.2 1020.2 1.2
 
Date/Time
CST
Temp
°C
App
Temp
°C
Dew
Point
Rel
Hum
%
Delta-T
°C
Wind Press
QNH
hPa
Press
MSL
hPa
Rain
since 9 am
mm
Dir
 
Spd
km/h
Gust
km/h
Spd
kts
Gust
kts
01/11:30pm 9.3 5.5 5.9 79 1.6 SSW 15 24 8 13 1020.1 1020.1 1.2
01/11:00pm 9.9 3.7 6.1 77 1.8 SW 28 32 15 17 1019.9 1019.9 1.2
01/10:30pm 10.2 4.5 6.5 78 1.7 SW 26 33 14 18 1019.7 1019.7 1.2
01/10:00pm 9.7 6.2 7.0 83 1.3 SW 15 20 8 11 1019.5 1019.5 1.2
01/09:30pm 9.7 5.1 6.4 80 1.5 SSW 20 30 11 16 1019.1 1019.1 1.2
01/09:00pm 9.9 5.0 7.0 82 1.4 SW 22 37 12 20 1018.8 1018.8 1.2
01/08:30pm 9.1 4.7 6.5 84 1.2 SSW 19 22 10 12 1018.6 1018.6 1.2
01/08:00pm 9.9 1.8 7.0 82 1.4 SW 39 57 21 31 1018.0 1018.0 0.8
01/07:31pm 11.1 4.4 8.1 82 1.5 WSW 33 52 18 28 1017.4 1017.4 0.8
01/07:30pm 11.2 4.7 8.2 82 1.5 WSW 32 48 17 26 1017.5 1017.5 0.8
01/07:25pm 11.0 5.3 8.4 84 1.3 WSW 28 33 15 18 1017.5 1017.5 0.8
01/07:00pm 9.1 6.7 7.2 88 0.9 W 9 11 5 6 1017.3 1017.3 0.8
01/06:30pm 9.3 6.5 7.1 86 1.0 SW 11 13 6 7 1016.9 1016.9 0.8
01/06:04pm 9.7 2.4 7.1 84 1.2 SW 35 54 19 29 1016.8 1016.8 0.6
01/06:00pm 9.9 1.8 6.8 81 1.5 SW 39 54 21 29 1016.6 1016.6 0.6
01/05:49pm 11.6 3.0 6.5 71 2.4 SW 41 50 22 27 1016.4 1016.4 0.6
01/05:30pm 12.1 7.5 8.2 77 1.9 SW 22 32 12 17 1016.0 1016.0 0.6
01/05:00pm 12.8 9.6 8.3 74 2.2 W 15 20 8 11 1015.6 1015.6 0.6
01/04:30pm 13.2 7.9 6.8 65 3.1 WSW 24 30 13 16 1015.4 1015.4 0.6
01/04:00pm 13.8 7.9 5.9 59 3.7 WSW 26 35 14 19 1014.9 1014.9 0.6
01/03:30pm 14.9 8.7 6.2 56 4.2 SW 28 35 15 19 1014.7 1014.7 0.6
01/03:00pm 15.2 9.0 6.2 55 4.3 SW 28 39 15 21 1014.5 1014.5 0.6
01/02:30pm 15.3 7.9 5.2 51 4.8 SW 33 39 18 21 1014.4 1014.4 0.6
01/02:00pm 15.2 8.5 5.4 52 4.7 SW 30 39 16 21 1014.2 1014.2 0.6
01/01:30pm 14.3 7.7 6.2 58 3.9 SW 30 44 16 24 1014.3 1014.3 0.6
01/01:00pm 14.7 8.3 6.8 59 3.8 WSW 30 41 16 22 1014.4 1014.4 0.6
01/12:30pm 14.8 8.2 7.8 63 3.5 SW 32 41 17 22 1014.5 1014.5 0.6
01/12:00pm 14.6 8.3 7.4 62 3.5 SW 30 44 16 24 1014.5 1014.5 0.6
01/11:30am 13.5 8.0 9.0 74 2.3 WSW 28 35 15 19 1014.5 1014.5 0.6
01/11:00am 13.4 9.4 10.6 83 1.5 WSW 22 30 12 16 1014.6 1014.6 0.6
01/10:30am 12.5 8.9 10.6 88 1.0 WSW 20 26 11 14 1014.6 1014.6 0.6
01/10:00am 12.5 9.9 10.6 88 1.0 W 15 19 8 10 1014.4 1014.4 0.6
01/09:44am 12.1 10.2 10.5 90 0.8 W 11 15 6 8 1014.3 1014.3 0.6
01/09:33am 11.9 10.8 10.5 91 0.7 WSW 7 9 4 5 1014.4 1014.4 0.6
01/09:30am 11.8 10.6 10.4 91 0.7 WSW 7 9 4 5 1014.3 1014.3 0.6
01/09:00am 11.4 8.9 9.8 90 0.8 SSW 13 17 7 9 1014.3 1014.3 6.8
01/08:40am 11.3 7.5 9.7 90 0.8 SSW 20 28 11 15 1014.1 1014.1 6.8
01/08:30am 11.4 6.9 10.0 91 0.7 SW 24 32 13 17 1013.9 1013.9 6.8
01/08:23am 11.9 9.0 11.0 94 0.5 W 17 24 9 13 1014.0 1014.0 6.4
01/08:00am 11.5 9.6 10.6 94 0.5 W 11 17 6 9 1013.4 1013.4 6.2
01/07:58am 11.5 9.2 10.6 94 0.5 W 13 17 7 9 1013.4 1013.4 6.2
01/07:33am 11.5 8.1 10.6 94 0.5 WSW 19 24 10 13 1013.5 1013.5 5.8
01/07:30am 11.4 7.8 10.5 94 0.5 WSW 20 24 11 13 1013.5 1013.5 5.6
01/07:20am 11.3 7.7 10.4 94 0.5 WSW 20 26 11 14 1013.3 1013.3 5.6
01/07:19am 11.3 7.7 10.5 95 0.4 WSW 20 26 11 14 1013.3 1013.3 5.6
01/07:00am 11.8 8.5 11.0 95 0.4 NW 19 22 10 12 1012.8 1012.8 5.2
01/06:52am 11.7 9.2 10.9 95 0.4 NNW 15 19 8 10 1012.6 1012.6 5.0
01/06:40am 11.7 9.9 10.9 95 0.4 NNW 11 13 6 7 1012.7 1012.7 4.8
01/06:30am 11.6 9.4 10.8 95 0.4 NNW 13 15 7 8 1012.7 1012.7 4.8
01/06:00am 11.7 9.9 10.8 94 0.5 N 11 15 6 8 1012.4 1012.4 4.8
01/05:36am 11.6 10.1 10.7 94 0.5 NW 9 13 5 7 1012.2 1012.2 4.8
01/05:30am 11.6 10.1 10.7 94 0.5 NNW 9 13 5 7 1012.2 1012.2 4.8
01/05:00am 11.7 10.3 10.8 94 0.5 NW 9 11 5 6 1012.2 1012.2 4.8
01/04:34am 11.7 10.3 10.8 94 0.5 NW 9 11 5 6 1012.1 1012.1 4.8
01/04:30am 11.7 10.3 10.8 94 0.5 NW 9 11 5 6 1012.0 1012.0 4.8
01/04:00am 11.6 10.5 10.5 93 0.6 WSW 7 9 4 5 1011.4 1011.4 4.8
01/03:30am 11.5 9.6 10.4 93 0.6 SW 11 13 6 7 1011.4 1011.4 4.4
01/03:00am 11.6 9.3 10.5 93 0.6 SW 13 17 7 9 1011.7 1011.7 3.6
01/02:30am 11.7 8.6 10.4 92 0.7 WSW 17 22 9 12 1012.2 1012.2 2.0
01/02:00am 11.9 8.9 10.5 91 0.7 SW 17 22 9 12 1011.9 1011.9 1.2
01/01:30am 12.5 8.2 10.9 90 0.8 SW 24 32 13 17 1012.1 1012.1 0.8
01/01:00am 13.3 10.7 11.9 91 0.7 WSW 17 20 9 11 1012.0 1012.0 0.2
01/12:30am 13.3 11.0 11.7 90 0.9 W 15 17 8 9 1012.3 1012.3 0.0
01/12:00am 13.8 10.6 11.8 88 1.1 WSW 20 26 11 14 1012.0 1012.0 0.0
 
Date/Time
CST
Temp
°C
App
Temp
°C
Dew
Point
Rel
Hum
%
Delta-T
°C
Wind Press
QNH
hPa
Press
MSL
hPa
Rain
since 9 am
mm
Dir
 
Spd
km/h
Gust
km/h
Spd
kts
Gust
kts
31/11:43pm 14.1 11.8 11.6 85 1.3 WSW 15 20 8 11 1012.2 1012.2 0.0
31/11:34pm 14.0 11.2 11.5 85 1.3 WSW 17 22 9 12 1012.5 1012.5 0.0
31/11:30pm 14.0 11.2 11.5 85 1.3 SW 17 22 9 12 1012.2 1012.2 0.0
31/11:00pm 14.3 11.5 11.5 83 1.5 SSW 17 28 9 15 1011.1 1011.1 0.0
31/10:47pm 14.5 11.4 11.6 83 1.6 SW 19 24 10 13 1011.3 1011.3 0.0
31/10:30pm 14.4 11.2 11.4 82 1.6 SW 19 24 10 13 1012.1 1012.1 0.0
31/10:00pm 13.5 10.9 9.2 75 2.2 SSW 13 17 7 9 1011.2 1011.2 0.0
31/09:30pm 13.4 11.3 8.3 71 2.5 SW 9 13 5 7 1011.3 1011.3 0.0
31/09:00pm 13.5 10.5 7.5 67 2.9 W 13 17 7 9 1011.4 1011.4 0.0
31/08:30pm 14.9 12.1 7.0 59 3.9 SW 11 17 6 9 1010.7 1010.7 0.0
31/08:00pm 16.7 15.8 7.6 55 4.6 WSW 2 6 1 3 1010.9 1010.9 0.0
31/07:30pm 16.1 14.2 7.6 57 4.3 WNW 7 9 4 5 1011.2 1011.2 0.0
31/07:00pm 17.2 14.5 7.3 52 5.0 W 11 17 6 9 1010.6 1010.6 0.0
31/06:30pm 17.7 14.4 8.0 53 4.9 NE 15 17 8 9 1010.3 1010.3 0.0
31/06:00pm 18.1 15.1 7.5 50 5.4 NE 13 17 7 9 1010.5 1010.5 0.0
31/05:30pm 17.9 14.9 7.6 51 5.2 NNE 13 17 7 9 1010.3 1010.3 0.0
31/05:00pm 19.6 15.5 6.0 41 6.7 N 17 20 9 11 1010.2 1010.2 0.0
31/04:30pm 20.5 15.9 5.7 38 7.4 N 19 22 10 12 1010.0 1010.0 0.0

Other Formats:

Comma delimited format used in spreadsheet applications
http://www.bom.gov.au/fwo/IDS60801/IDS60801.95676.axf

JavaScript Object Notation format (JSON) in row-major order
http://www.bom.gov.au/fwo/IDS60801/IDS60801.95676.json